Time;durP1;ratioP1;P1;durP2;ratioP2;P2;SDS_P1;SDS_P2;PMS_P1;PMS_P2;Temp;Humidity;BMP_temperature;BMP_pressure;BME280_temperature;BME280_humidity;BME280_pressure;Samples;Min_cycle;Max_cycle;Signal;HPM_P1;HPM_P2
2022/09/08 00:00:13;;;;;;;14.07;11.32;;;;;;;;;;5059520;28;20050;-79
2022/09/08 00:02:39;;;;;;;15.88;12.18;;;;;;;;;;5058817;28;20021;-80
2022/09/08 00:05:05;;;;;;;14.57;12.02;;;;;;;;;;5056580;28;20524;-80
2022/09/08 00:07:32;;;;;;;17.40;12.18;;;;;;;;;;5057149;28;20104;-80
2022/09/08 00:09:59;;;;;;;17.40;13.60;;;;;;;;;;5056829;28;20024;-80
2022/09/08 00:12:25;;;;;;;15.25;12.23;;;;;;;;;;5056830;28;20047;-79
2022/09/08 00:14:52;;;;;;;14.35;11.80;;;;;;;;;;5057708;28;20079;-80
2022/09/08 00:17:18;;;;;;;16.48;12.57;;;;;;;;;;5059833;28;20033;-80
2022/09/08 00:19:45;;;;;;;14.88;11.40;;;;;;;;;;5057521;28;20021;-80
2022/09/08 00:22:11;;;;;;;14.95;12.05;;;;;;;;;;5059926;28;20025;-79
2022/09/08 00:24:37;;;;;;;15.38;12.70;;;;;;;;;;5058870;28;20123;-80
2022/09/08 00:27:04;;;;;;;14.75;11.68;;;;;;;;;;5057770;28;20025;-80
2022/09/08 00:29:30;;;;;;;17.23;12.80;;;;;;;;;;5057538;28;20021;-80
2022/09/08 00:31:56;;;;;;;15.07;11.85;;;;;;;;;;5058625;28;20037;-80
2022/09/08 00:34:22;;;;;;;14.00;11.93;;;;;;;;;;5058587;28;20111;-80
2022/09/08 00:36:48;;;;;;;16.42;11.45;;;;;;;;;;5059414;28;20028;-80
2022/09/08 00:39:15;;;;;;;17.40;12.10;;;;;;;;;;5058501;28;20032;-80
2022/09/08 00:41:41;;;;;;;15.50;12.60;;;;;;;;;;5046535;28;20422;-80
2022/09/08 00:44:26;;;;;;;15.32;11.93;;;;;;;;;;5039200;28;20029;-79
2022/09/08 00:46:54;;;;;;;14.52;11.55;;;;;;;;;;5057958;28;20071;-79
2022/09/08 00:49:22;;;;;;;17.63;13.10;;;;;;;;;;5059115;28;20044;-79
2022/09/08 00:51:49;;;;;;;17.73;13.30;;;;;;;;;;5058533;28;20021;-79
2022/09/08 00:54:16;;;;;;;15.48;12.98;;;;;;;;;;5058343;28;20500;-80
2022/09/08 00:56:43;;;;;;;15.50;12.32;;;;;;;;;;5058570;28;20060;-80
2022/09/08 00:59:09;;;;;;;18.65;12.55;;;;;;;;;;5058976;28;20087;-80
2022/09/08 01:01:36;;;;;;;16.27;12.27;;;;;;;;;;5057764;28;20035;-80
2022/09/08 01:04:03;;;;;;;18.85;13.10;;;;;;;;;;5059518;28;20021;-80
2022/09/08 01:14:56;;;;;;;16.63;13.35;;;;;;;;;;5041137;28;20487;-80
2022/09/08 01:17:27;;;;;;;15.68;11.52;;;;;;;;;;5056278;28;20094;-80
2022/09/08 01:19:54;;;;;;;17.13;12.68;;;;;;;;;;5057899;28;20605;-80
2022/09/08 01:22:41;;;;;;;16.42;12.55;;;;;;;;;;5056067;28;20040;-80
2022/09/08 01:25:22;;;;;;;16.13;12.00;;;;;;;;;;5056367;28;20043;-80
2022/09/08 01:27:49;;;;;;;16.10;12.48;;;;;;;;;;5058104;28;20062;-80
2022/09/08 01:30:15;;;;;;;15.95;12.52;;;;;;;;;;5039556;28;20187;-80
2022/09/08 01:32:42;;;;;;;14.27;12.10;;;;;;;;;;5038356;28;20025;-80
2022/09/08 01:35:09;;;;;;;18.40;14.15;;;;;;;;;;5056784;28;20090;-80
2022/09/08 01:37:35;;;;;;;16.95;12.80;;;;;;;;;;5058267;28;20025;-80
2022/09/08 01:40:03;;;;;;;17.13;12.60;;;;;;;;;;5057195;28;20483;-80
2022/09/08 01:42:29;;;;;;;15.27;12.18;;;;;;;;;;5057837;28;20025;-80
2022/09/08 01:44:56;;;;;;;17.30;13.48;;;;;;;;;;5055228;28;20037;-80
2022/09/08 01:47:22;;;;;;;16.30;13.10;;;;;;;;;;5056298;28;20497;-80
2022/09/08 01:49:48;;;;;;;16.13;12.88;;;;;;;;;;5058416;28;20021;-80
2022/09/08 01:52:14;;;;;;;16.83;12.10;;;;;;;;;;5061813;28;20032;-80
2022/09/08 01:54:40;;;;;;;16.17;12.10;;;;;;;;;;5061622;28;20021;-80
2022/09/08 01:57:06;;;;;;;15.73;13.07;;;;;;;;;;5060391;28;20508;-80
2022/09/08 01:59:32;;;;;;;15.73;12.15;;;;;;;;;;5060950;28;20025;-80
2022/09/08 02:01:58;;;;;;;23.77;13.57;;;;;;;;;;5061121;28;20033;-80
2022/09/08 02:04:24;;;;;;;15.48;12.70;;;;;;;;;;5061076;28;20021;-79
2022/09/08 02:06:51;;;;;;;18.83;13.60;;;;;;;;;;5060883;28;20032;-79
2022/09/08 02:09:17;;;;;;;17.23;12.63;;;;;;;;;;5061841;28;20483;-80
2022/09/08 02:11:43;;;;;;;15.85;12.48;;;;;;;;;;5060577;28;20029;-80
2022/09/08 02:14:09;;;;;;;19.15;13.05;;;;;;;;;;5061758;28;20021;-80
2022/09/08 02:16:36;;;;;;;20.83;13.63;;;;;;;;;;5044726;28;20021;-80
2022/09/08 02:19:02;;;;;;;17.48;13.00;;;;;;;;;;5048583;28;20029;-80
2022/09/08 02:21:28;;;;;;;17.98;13.48;;;;;;;;;;5058490;28;20040;-80
2022/09/08 02:23:55;;;;;;;15.73;13.02;;;;;;;;;;5059550;28;20527;-80
2022/09/08 02:26:23;;;;;;;16.67;13.20;;;;;;;;;;5059119;28;20475;-80
2022/09/08 02:28:53;;;;;;;18.10;13.45;;;;;;;;;;5057494;28;20109;-80
2022/09/08 02:31:20;;;;;;;15.77;13.05;;;;;;;;;;5039434;28;20044;-80
2022/09/08 02:33:46;;;;;;;15.75;12.77;;;;;;;;;;5051327;28;20024;-80
2022/09/08 02:36:12;;;;;;;17.75;13.93;;;;;;;;;;5059176;28;20454;-80
2022/09/08 02:38:38;;;;;;;18.00;14.02;;;;;;;;;;5060519;28;20067;-80
2022/09/08 02:41:06;;;;;;;17.17;14.43;;;;;;;;;;5060547;28;20025;-80
2022/09/08 02:43:33;;;;;;;16.90;13.23;;;;;;;;;;5059853;28;20427;-80
2022/09/08 02:46:08;;;;;;;17.40;14.07;;;;;;;;;;5043806;28;20139;-79
2022/09/08 02:48:35;;;;;;;16.38;12.93;;;;;;;;;;5060078;28;20033;-80
2022/09/08 02:51:01;;;;;;;18.92;14.27;;;;;;;;;;5061053;28;20095;-80
2022/09/08 02:53:29;;;;;;;16.85;13.25;;;;;;;;;;5061777;28;20395;-79
2022/09/08 02:55:56;;;;;;;18.25;14.43;;;;;;;;;;5061280;28;20051;-79
2022/09/08 02:58:22;;;;;;;17.30;13.38;;;;;;;;;;5061709;28;20393;-80
2022/09/08 03:00:49;;;;;;;19.63;13.75;;;;;;;;;;5058388;28;20036;-80
2022/09/08 03:03:15;;;;;;;18.05;14.10;;;;;;;;;;5062863;28;20029;-80
2022/09/08 03:05:41;;;;;;;18.67;14.70;;;;;;;;;;5063970;28;20033;-80
2022/09/08 03:08:08;;;;;;;20.23;16.02;;;;;;;;;;5063413;28;20618;-80
2022/09/08 03:10:35;;;;;;;18.58;15.07;;;;;;;;;;5059744;28;20035;-80
2022/09/08 03:13:01;;;;;;;18.73;15.00;;;;;;;;;;5054852;28;20040;-80
2022/09/08 03:15:27;;;;;;;19.65;15.05;;;;;;;;;;5062441;28;20072;-80
2022/09/08 03:17:53;;;;;;;19.40;16.08;;;;;;;;;;5063307;28;20036;-80
2022/09/08 03:20:20;;;;;;;23.02;16.33;;;;;;;;;;5059723;28;20117;-80
2022/09/08 03:22:46;;;;;;;22.02;16.98;;;;;;;;;;5060146;28;20017;-80
2022/09/08 03:25:12;;;;;;;21.55;16.58;;;;;;;;;;5060345;28;20033;-80
2022/09/08 03:27:39;;;;;;;20.90;15.82;;;;;;;;;;5060631;28;20040;-80
2022/09/08 03:30:07;;;;;;;18.55;14.77;;;;;;;;;;5061757;28;20028;-80
2022/09/08 03:32:35;;;;;;;21.25;16.58;;;;;;;;;;5056301;28;20029;-80
2022/09/08 03:35:02;;;;;;;21.45;15.43;;;;;;;;;;5059965;28;20028;-80
2022/09/08 03:37:28;;;;;;;20.52;15.93;;;;;;;;;;5062089;28;20037;-79
2022/09/08 03:39:55;;;;;;;22.02;15.88;;;;;;;;;;5061954;28;20048;-80
2022/09/08 03:42:21;;;;;;;21.40;15.25;;;;;;;;;;5045219;28;20029;-80
2022/09/08 03:44:47;;;;;;;21.10;16.83;;;;;;;;;;5042776;28;20029;-80
2022/09/08 03:47:13;;;;;;;21.95;16.27;;;;;;;;;;5042051;28;20041;-80
2022/09/08 03:49:39;;;;;;;20.52;15.60;;;;;;;;;;5053049;28;20043;-81
2022/09/08 03:52:07;;;;;;;19.42;15.70;;;;;;;;;;5061112;28;20029;-80
2022/09/08 03:54:50;;;;;;;20.75;15.75;;;;;;;;;;5060254;28;20082;-80
2022/09/08 03:57:16;;;;;;;;;;;;;;;;;;5052543;28;20025;-80
2022/09/08 03:59:42;;;;;;;20.58;15.65;;;;;;;;;;5052532;28;19944;-80
2022/09/08 04:02:09;;;;;;;20.85;15.98;;;;;;;;;;5050187;28;20064;-81
2022/09/08 04:04:35;;;;;;;21.80;17.35;;;;;;;;;;5043921;28;20049;-82
2022/09/08 04:07:01;;;;;;;23.73;16.95;;;;;;;;;;5047652;28;20020;-82
2022/09/08 04:09:27;;;;;;;23.02;17.70;;;;;;;;;;5048209;28;20395;-81
2022/09/08 04:11:54;;;;;;;23.30;17.25;;;;;;;;;;5054928;28;20025;-81
2022/09/08 04:14:20;;;;;;;22.45;17.42;;;;;;;;;;5055793;28;20104;-81
2022/09/08 04:16:46;;;;;;;22.67;16.90;;;;;;;;;;5049028;28;20060;-81
2022/09/08 04:19:12;;;;;;;22.50;17.13;;;;;;;;;;5042411;28;20032;-81
2022/09/08 04:21:39;;;;;;;23.00;17.77;;;;;;;;;;5062440;28;20021;-81
2022/09/08 04:24:05;;;;;;;23.77;17.67;;;;;;;;;;5055891;28;20033;-81
2022/09/08 04:26:31;;;;;;;23.27;17.70;;;;;;;;;;5047859;28;20029;-81
2022/09/08 04:28:58;;;;;;;24.30;18.20;;;;;;;;;;5055390;28;20075;-81
2022/09/08 04:31:24;;;;;;;24.15;18.13;;;;;;;;;;5060623;28;20404;-81
2022/09/08 04:33:50;;;;;;;24.20;18.88;;;;;;;;;;5058157;28;20013;-81
2022/09/08 04:36:17;;;;;;;22.40;17.90;;;;;;;;;;5059918;28;20155;-81
2022/09/08 04:38:43;;;;;;;22.38;17.48;;;;;;;;;;5053140;28;20025;-81
2022/09/08 04:41:11;;;;;;;22.08;17.73;;;;;;;;;;5046806;28;20059;-80
2022/09/08 04:43:37;;;;;;;23.20;18.42;;;;;;;;;;5051344;28;20032;-81
2022/09/08 04:46:04;;;;;;;25.92;18.60;;;;;;;;;;5051865;28;20055;-81
2022/09/08 04:48:31;;;;;;;21.92;18.50;;;;;;;;;;5066740;28;20226;-81
2022/09/08 04:50:58;;;;;;;23.17;18.50;;;;;;;;;;5059087;28;20130;-80
2022/09/08 04:53:25;;;;;;;26.73;20.20;;;;;;;;;;5044666;28;20051;-81
2022/09/08 04:55:52;;;;;;;23.15;19.08;;;;;;;;;;5051510;28;20051;-81
2022/09/08 04:58:18;;;;;;;21.60;17.77;;;;;;;;;;5052085;28;20032;-81
2022/09/08 05:00:44;;;;;;;27.90;20.63;;;;;;;;;;5044295;28;20037;-81
2022/09/08 05:03:10;;;;;;;24.02;19.25;;;;;;;;;;5038944;28;20036;-80
2022/09/08 05:05:37;;;;;;;24.85;19.23;;;;;;;;;;5040037;28;20033;-80
2022/09/08 05:08:03;;;;;;;24.80;19.75;;;;;;;;;;5042622;28;20029;-80
2022/09/08 05:10:32;;;;;;;26.00;20.77;;;;;;;;;;5056479;28;20382;-81
2022/09/08 05:12:58;;;;;;;23.63;19.60;;;;;;;;;;5056579;28;20017;-81
2022/09/08 05:15:25;;;;;;;22.13;18.40;;;;;;;;;;5057908;28;20032;-81
2022/09/08 05:17:52;;;;;;;25.45;20.17;;;;;;;;;;5057671;28;20037;-81
2022/09/08 05:20:18;;;;;;;25.05;20.65;;;;;;;;;;5056548;28;20063;-81
2022/09/08 05:22:44;;;;;;;25.52;20.92;;;;;;;;;;5055385;28;20030;-80
2022/09/08 05:25:10;;;;;;;29.38;22.83;;;;;;;;;;5051567;28;20033;-82
2022/09/08 05:27:36;;;;;;;32.75;25.15;;;;;;;;;;5059612;28;20048;-81
2022/09/08 05:30:18;;;;;;;33.40;27.55;;;;;;;;;;5056452;28;20029;-81
2022/09/08 05:32:56;;;;;;;33.33;26.58;;;;;;;;;;5066563;28;20017;-81
2022/09/08 05:35:22;;;;;;;30.98;27.08;;;;;;;;;;5050073;28;20022;-81
2022/09/08 05:37:48;;;;;;;31.05;26.20;;;;;;;;;;5050504;28;20396;-81
2022/09/08 05:40:14;;;;;;;31.67;24.70;;;;;;;;;;5050828;28;20029;-81
2022/09/08 05:42:42;;;;;;;29.38;23.95;;;;;;;;;;5053737;28;20071;-81
2022/09/08 05:45:08;;;;;;;27.73;23.17;;;;;;;;;;5053084;28;20013;-81
2022/09/08 05:47:34;;;;;;;26.67;23.05;;;;;;;;;;5050326;28;20044;-81
2022/09/08 05:50:00;;;;;;;27.38;22.90;;;;;;;;;;5050737;28;20448;-80
2022/09/08 05:52:31;;;;;;;28.15;23.10;;;;;;;;;;5051696;28;20156;-80
2022/09/08 05:54:57;;;;;;;27.02;22.33;;;;;;;;;;5050847;28;20025;-81
2022/09/08 05:57:23;;;;;;;26.73;22.15;;;;;;;;;;5052112;28;20036;-80
2022/09/08 05:59:49;;;;;;;24.38;19.95;;;;;;;;;;5051868;28;20086;-80
2022/09/08 06:02:15;;;;;;;24.48;20.10;;;;;;;;;;5063887;28;20044;-82
2022/09/08 06:04:41;;;;;;;21.30;18.88;;;;;;;;;;5064239;28;20029;-81
2022/09/08 06:07:07;;;;;;;26.50;21.70;;;;;;;;;;5063023;28;20538;-82
2022/09/08 06:09:33;;;;;;;28.05;20.45;;;;;;;;;;5063761;28;20032;-82
2022/09/08 06:11:59;;;;;;;24.50;19.40;;;;;;;;;;5063430;28;20028;-80
2022/09/08 06:14:25;;;;;;;21.98;18.48;;;;;;;;;;5068324;28;20017;-80
2022/09/08 06:16:51;;;;;;;20.17;17.70;;;;;;;;;;5055404;28;20033;-81
2022/09/08 06:19:17;;;;;;;22.45;17.35;;;;;;;;;;5048376;28;20014;-80
2022/09/08 06:21:43;;;;;;;20.85;17.77;;;;;;;;;;5058399;28;20031;-80
2022/09/08 06:24:13;;;;;;;21.75;16.13;;;;;;;;;;5079891;28;20561;-81
2022/09/08 06:26:58;;;;;;;20.30;15.73;;;;;;;;;;5060225;28;20029;-80
2022/09/08 06:29:24;;;;;;;19.20;15.52;;;;;;;;;;5061497;28;20028;-80
2022/09/08 06:32:08;;;;;;;19.33;14.85;;;;;;;;;;5060771;28;20037;-81
2022/09/08 06:34:55;;;;;;;19.05;15.18;;;;;;;;;;5042088;28;20030;-81
2022/09/08 06:37:30;;;;;;;17.88;15.40;;;;;;;;;;5047801;28;20036;-81
2022/09/08 06:40:12;;;;;;;15.82;13.57;;;;;;;;;;5062367;28;20051;-81
2022/09/08 06:42:43;;;;;;;18.10;13.95;;;;;;;;;;5060843;28;20400;-80
2022/09/08 06:45:13;;;;;;;17.13;13.55;;;;;;;;;;5060143;28;20024;-80
2022/09/08 06:47:41;;;;;;;15.02;13.13;;;;;;;;;;5059613;28;20090;-81
2022/09/08 06:50:12;;;;;;;15.60;13.70;;;;;;;;;;5062207;28;20021;-81
2022/09/08 06:52:45;;;;;;;17.60;12.95;;;;;;;;;;5059382;28;20030;-80
2022/09/08 06:55:11;;;;;;;20.40;13.25;;;;;;;;;;5044295;28;20026;-81
2022/09/08 06:57:45;;;;;;;16.80;13.00;;;;;;;;;;5042031;28;20101;-81
2022/09/08 07:00:41;;;;;;;17.35;12.95;;;;;;;;;;5043821;28;20029;-82
2022/09/08 07:03:16;;;;;;;15.13;12.82;;;;;;;;;;5068945;28;20068;-80
2022/09/08 07:05:42;;;;;;;16.38;11.48;;;;;;;;;;5077216;28;20032;-80
2022/09/08 07:08:10;;;;;;;15.40;11.93;;;;;;;;;;5077821;28;20044;-81
2022/09/08 07:10:36;;;;;;;13.45;10.82;;;;;;;;;;5077382;28;20111;-82
2022/09/08 07:13:20;;;;;;;13.18;10.68;;;;;;;;;;5077788;28;20052;-81
2022/09/08 07:15:49;;;;;;;12.27;10.60;;;;;;;;;;5077058;28;20028;-81
2022/09/08 07:18:16;;;;;;;14.18;10.50;;;;;;;;;;5073701;28;20405;-81
2022/09/08 07:20:42;;;;;;;12.20;9.80;;;;;;;;;;5056920;28;20594;-81
2022/09/08 07:23:12;;;;;;;12.02;10.45;;;;;;;;;;5057764;28;20499;-81
2022/09/08 07:25:42;;;;;;;11.32;7.78;;;;;;;;;;5057123;28;20378;-81
2022/09/08 07:28:13;;;;;;;10.85;7.72;;;;;;;;;;5055779;28;20025;-80
2022/09/08 07:30:40;;;;;;;12.52;8.07;;;;;;;;;;5054662;28;20029;-80
2022/09/08 07:33:14;;;;;;;11.43;8.05;;;;;;;;;;5064494;28;20033;-80
2022/09/08 07:35:40;;;;;;;9.52;7.82;;;;;;;;;;5077061;28;20115;-80
2022/09/08 07:38:11;;;;;;;10.23;7.85;;;;;;;;;;5076158;28;20037;-79
2022/09/08 07:40:43;;;;;;;11.15;7.53;;;;;;;;;;5058777;28;20040;-80
2022/09/08 07:43:13;;;;;;;10.25;7.75;;;;;;;;;;5055704;28;20052;-80
2022/09/08 07:45:42;;;;;;;9.27;7.30;;;;;;;;;;5060579;28;20048;-80
2022/09/08 07:48:17;;;;;;;10.70;7.53;;;;;;;;;;5063904;28;20032;-80
2022/09/08 07:50:56;;;;;;;11.98;7.10;;;;;;;;;;5064758;28;20036;-80
2022/09/08 07:53:40;;;;;;;8.43;6.43;;;;;;;;;;5062179;28;20017;-79
2022/09/08 07:56:14;;;;;;;9.70;6.93;;;;;;;;;;5064875;28;20048;-80
2022/09/08 07:59:12;;;;;;;7.50;5.68;;;;;;;;;;5046625;28;20083;-81
2022/09/08 08:01:42;;;;;;;8.15;5.88;;;;;;;;;;5064400;28;20076;-80
2022/09/08 08:04:32;;;;;;;10.30;6.00;;;;;;;;;;5061761;28;20041;-80
2022/09/08 08:07:02;;;;;;;10.38;6.20;;;;;;;;;;5061997;28;20060;-82
2022/09/08 08:09:48;;;;;;;10.32;6.75;;;;;;;;;;5064249;28;20032;-82
2022/09/08 08:12:17;;;;;;;13.70;7.00;;;;;;;;;;5062063;28;20099;-79
2022/09/08 08:14:46;;;;;;;10.35;6.40;;;;;;;;;;5082784;28;20106;-80
2022/09/08 08:17:15;;;;;;;7.63;5.75;;;;;;;;;;5064929;28;20036;-80
2022/09/08 08:19:45;;;;;;;7.70;5.35;;;;;;;;;;5081814;28;20029;-79
2022/09/08 08:22:30;;;;;;;7.78;5.30;;;;;;;;;;5079969;28;20062;-81
2022/09/08 08:25:09;;;;;;;8.23;5.70;;;;;;;;;;5058520;28;20088;-79
2022/09/08 08:28:07;;;;;;;11.23;7.32;;;;;;;;;;5058985;28;20147;-80
2022/09/08 08:30:38;;;;;;;8.88;6.60;;;;;;;;;;4987050;28;20686;-80
2022/09/08 08:33:10;;;;;;;9.25;5.88;;;;;;;;;;4999872;28;20121;-80
2022/09/08 08:35:41;;;;;;;9.15;5.95;;;;;;;;;;5001999;28;20026;-80
2022/09/08 08:38:11;;;;;;;8.68;6.05;;;;;;;;;;4968862;28;20118;-80
2022/09/08 08:40:39;;;;;;;7.40;5.45;;;;;;;;;;4982929;28;20501;-81
2022/09/08 08:43:06;;;;;;;6.97;5.28;;;;;;;;;;4982648;28;20038;-81
2022/09/08 08:45:32;;;;;;;7.60;5.15;;;;;;;;;;4983408;28;20027;-80
2022/09/08 08:48:00;;;;;;;8.95;5.68;;;;;;;;;;4982284;28;20035;-79
2022/09/08 08:50:40;;;;;;;9.07;6.05;;;;;;;;;;4984937;28;20645;-80
2022/09/08 08:53:08;;;;;;;7.65;5.05;;;;;;;;;;4983891;28;20039;-79
2022/09/08 08:55:39;;;;;;;7.30;5.22;;;;;;;;;;4985112;28;20026;-79
2022/09/08 08:58:18;;;;;;;7.63;5.25;;;;;;;;;;4986267;28;20077;-81
2022/09/08 09:00:44;;;;;;;8.95;5.80;;;;;;;;;;4982681;28;20058;-80
2022/09/08 09:03:21;;;;;;;10.35;6.03;;;;;;;;;;4979166;28;20731;-80
2022/09/08 09:05:50;;;;;;;9.82;5.47;;;;;;;;;;4989808;28;20033;-80
2022/09/08 09:08:35;;;;;;;8.90;5.43;;;;;;;;;;5062380;28;20037;-81
2022/09/08 09:11:01;;;;;;;10.00;5.72;;;;;;;;;;5060422;28;20025;-80
2022/09/08 09:13:30;;;;;;;8.50;5.13;;;;;;;;;;5041772;28;20797;-80
2022/09/08 09:15:59;;;;;;;8.52;6.00;;;;;;;;;;5038915;28;20398;-79
2022/09/08 09:18:44;;;;;;;8.45;5.18;;;;;;;;;;5055104;28;20089;-80
2022/09/08 09:21:16;;;;;;;7.82;6.05;;;;;;;;;;5053719;28;20025;-80
2022/09/08 09:23:51;;;;;;;8.48;5.35;;;;;;;;;;5061463;28;20041;-79
2022/09/08 09:26:22;;;;;;;9.23;5.53;;;;;;;;;;5063095;28;20158;-79
2022/09/08 09:29:08;;;;;;;9.65;5.38;;;;;;;;;;5067664;28;20047;-80
2022/09/08 09:32:04;;;;;;;7.70;5.25;;;;;;;;;;5063475;28;20025;-80
2022/09/08 09:34:49;;;;;;;9.43;5.90;;;;;;;;;;5063226;28;20052;-79
2022/09/08 09:37:35;;;;;;;11.30;5.47;;;;;;;;;;5062852;28;20048;-79
2022/09/08 09:40:21;;;;;;;7.50;5.40;;;;;;;;;;5062693;28;20059;-79
2022/09/08 09:42:53;;;;;;;10.70;5.72;;;;;;;;;;5061168;28;20090;-80
2022/09/08 09:45:32;;;;;;;7.78;5.07;;;;;;;;;;5056124;28;20037;-80
2022/09/08 09:48:13;;;;;;;9.15;5.63;;;;;;;;;;5055196;28;20033;-80
2022/09/08 09:50:42;;;;;;;8.38;6.05;;;;;;;;;;5053713;28;20105;-79
2022/09/08 09:53:08;;;;;;;8.23;5.60;;;;;;;;;;5054075;28;20021;-79
2022/09/08 09:55:57;;;;;;;8.57;5.13;;;;;;;;;;5051149;28;20025;-79
2022/09/08 09:58:33;;;;;;;7.88;5.15;;;;;;;;;;5054863;28;20048;-80
2022/09/08 10:00:59;;;;;;;7.70;5.50;;;;;;;;;;5055373;28;20078;-79
2022/09/08 10:03:44;;;;;;;6.85;5.22;;;;;;;;;;5054986;28;20171;-79
2022/09/08 10:06:23;;;;;;;12.35;5.20;;;;;;;;;;5056010;28;20532;-80
2022/09/08 10:08:55;;;;;;;7.32;5.43;;;;;;;;;;5056720;28;20052;-79
2022/09/08 10:11:25;;;;;;;7.85;4.90;;;;;;;;;;5056364;28;20021;-79
2022/09/08 10:13:57;;;;;;;8.35;5.78;;;;;;;;;;5057970;28;20033;-79
2022/09/08 10:16:30;;;;;;;10.55;4.95;;;;;;;;;;5065752;28;20017;-78
2022/09/08 10:18:56;;;;;;;;;;;;;;;;;;5066626;28;20459;-79
2022/09/08 10:21:40;;;;;;;7.05;5.03;;;;;;;;;;5059281;28;19947;-79
2022/09/08 10:24:33;;;;;;;8.02;5.35;;;;;;;;;;5055001;28;20033;-79
2022/09/08 10:26:59;;;;;;;7.35;4.97;;;;;;;;;;5056581;28;20033;-80
2022/09/08 10:29:42;;;;;;;6.65;5.25;;;;;;;;;;5058256;28;20017;-79
2022/09/08 10:32:08;;;;;;;8.65;5.70;;;;;;;;;;5055743;28;20070;-79
2022/09/08 10:34:37;;;;;;;8.25;5.85;;;;;;;;;;5056897;28;20029;-80
2022/09/08 10:37:13;;;;;;;8.40;5.90;;;;;;;;;;5056105;28;20048;-79
2022/09/08 10:39:39;;;;;;;7.22;5.95;;;;;;;;;;5057637;28;20049;-79
2022/09/08 10:42:05;;;;;;;6.97;5.80;;;;;;;;;;5057583;28;20032;-78
2022/09/08 10:44:34;;;;;;;7.47;6.10;;;;;;;;;;5058611;28;20066;-80
2022/09/08 10:47:10;;;;;;;8.40;5.40;;;;;;;;;;5055802;28;20060;-80
2022/09/08 10:49:55;;;;;;;7.93;6.38;;;;;;;;;;5044665;28;20056;-80
2022/09/08 10:52:21;;;;;;;8.25;6.13;;;;;;;;;;5038579;28;20025;-80
2022/09/08 10:55:06;;;;;;;8.90;6.65;;;;;;;;;;5039595;28;20027;-79
2022/09/08 10:57:50;;;;;;;10.23;6.38;;;;;;;;;;5057412;28;20068;-79
2022/09/08 11:00:19;;;;;;;8.65;6.85;;;;;;;;;;5058572;28;20035;-79
2022/09/08 11:02:57;;;;;;;8.20;7.25;;;;;;;;;;5058207;28;20059;-79
2022/09/08 11:05:40;;;;;;;9.07;7.47;;;;;;;;;;5055823;28;20032;-79
2022/09/08 11:08:09;;;;;;;8.60;7.70;;;;;;;;;;5056664;28;20033;-79
2022/09/08 11:10:59;;;;;;;10.48;8.25;;;;;;;;;;5052393;28;20055;-79
2022/09/08 11:13:29;;;;;;;10.25;8.77;;;;;;;;;;5039225;28;20042;-82
2022/09/08 11:15:54;;;;;;;11.70;8.35;;;;;;;;;;5047037;28;20104;-81
2022/09/08 11:18:37;;;;;;;10.18;7.85;;;;;;;;;;5058060;28;20535;-80
2022/09/08 11:21:25;;;;;;;8.90;8.00;;;;;;;;;;5059279;28;20021;-79
2022/09/08 11:24:09;;;;;;;9.88;8.25;;;;;;;;;;5055759;28;20269;-79
2022/09/08 11:26:41;;;;;;;10.50;9.00;;;;;;;;;;5052642;28;20029;-82
2022/09/08 11:29:09;;;;;;;9.65;8.38;;;;;;;;;;5058156;28;20041;-81
2022/09/08 11:31:38;;;;;;;9.48;8.05;;;;;;;;;;5057466;28;20044;-81
2022/09/08 11:34:04;;;;;;;10.63;7.47;;;;;;;;;;5050781;28;20052;-82
2022/09/08 11:36:49;;;;;;;9.15;7.50;;;;;;;;;;5043946;28;20485;-80
2022/09/08 11:39:36;;;;;;;11.02;8.15;;;;;;;;;;5059292;28;20777;-83
2022/09/08 11:42:20;;;;;;;10.77;8.25;;;;;;;;;;5058385;28;20043;-84
2022/09/08 11:45:10;;;;;;;9.57;8.43;;;;;;;;;;5058531;28;20051;-83
2022/09/08 11:47:44;;;;;;;8.75;7.85;;;;;;;;;;5050068;28;20052;-83
2022/09/08 11:50:16;;;;;;;9.55;7.63;;;;;;;;;;5058399;28;20053;-84
2022/09/08 11:53:00;;;;;;;9.13;7.55;;;;;;;;;;5057168;28;20025;-83
2022/09/08 11:55:35;;;;;;;9.65;7.88;;;;;;;;;;5057098;28;20025;-85
2022/09/08 11:58:04;;;;;;;12.02;8.20;;;;;;;;;;5058047;28;20055;-84
2022/09/08 12:00:46;;;;;;;9.20;7.07;;;;;;;;;;5058467;28;20199;-84
2022/09/08 12:03:21;;;;;;;7.95;6.82;;;;;;;;;;5058960;28;20029;-84
2022/09/08 12:05:58;;;;;;;7.72;6.85;;;;;;;;;;5055913;28;20028;-82
2022/09/08 12:08:27;;;;;;;7.95;7.15;;;;;;;;;;5057577;28;20028;-85
2022/09/08 12:11:12;;;;;;;9.10;7.20;;;;;;;;;;5054482;28;20074;-85
2022/09/08 12:13:51;;;;;;;10.07;7.20;;;;;;;;;;5055039;28;20465;-85
2022/09/08 12:16:20;;;;;;;9.85;7.50;;;;;;;;;;5055868;28;20083;-84
2022/09/08 12:18:49;;;;;;;8.88;7.05;;;;;;;;;;5056619;28;20433;-84
2022/09/08 12:21:16;;;;;;;7.95;6.75;;;;;;;;;;5056492;28;20116;-83
2022/09/08 12:24:00;;;;;;;9.30;6.80;;;;;;;;;;5057054;28;20043;-84
2022/09/08 12:26:40;;;;;;;8.30;6.93;;;;;;;;;;5057015;28;20063;-84
2022/09/08 12:29:13;;;;;;;7.85;6.28;;;;;;;;;;5055840;28;20021;-84
2022/09/08 12:31:42;;;;;;;8.35;6.80;;;;;;;;;;5041943;28;20070;-84
2022/09/08 12:34:17;;;;;;;8.70;6.75;;;;;;;;;;5057161;28;20082;-84
2022/09/08 12:36:46;;;;;;;9.40;6.72;;;;;;;;;;5050701;28;20028;-84
2022/09/08 12:39:51;;;;;;;9.05;6.85;;;;;;;;;;5048264;28;20036;-82
2022/09/08 12:42:23;;;;;;;10.35;6.93;;;;;;;;;;5051454;28;20037;-82
2022/09/08 12:44:55;;;;;;;9.50;6.72;;;;;;;;;;5054254;28;20151;-84
2022/09/08 12:47:28;;;;;;;9.32;6.85;;;;;;;;;;5053727;28;20129;-83
2022/09/08 12:50:03;;;;;;;9.57;6.70;;;;;;;;;;5046489;28;20029;-82
2022/09/08 12:52:58;;;;;;;10.70;7.18;;;;;;;;;;5056182;28;20046;-83
2022/09/08 12:55:30;;;;;;;8.77;7.18;;;;;;;;;;5039026;28;20184;-84
2022/09/08 12:58:00;;;;;;;11.93;7.00;;;;;;;;;;5037374;28;20021;-86
2022/09/08 13:00:30;;;;;;;8.68;6.45;;;;;;;;;;5048228;28;20515;-84
2022/09/08 13:02:56;;;;;;;8.90;6.15;;;;;;;;;;5056309;28;20025;-84
2022/09/08 13:05:37;;;;;;;9.00;6.00;;;;;;;;;;5060084;28;20040;-84
2022/09/08 13:08:03;;;;;;;6.93;5.60;;;;;;;;;;5059921;28;20063;-83
2022/09/08 13:10:33;;;;;;;10.02;6.28;;;;;;;;;;5060699;28;20021;-84
2022/09/08 13:13:18;;;;;;;9.30;6.20;;;;;;;;;;5057507;28;20500;-85
2022/09/08 13:15:46;;;;;;;7.78;5.72;;;;;;;;;;5058118;28;20080;-83
2022/09/08 13:18:15;;;;;;;10.80;8.00;;;;;;;;;;5061951;28;20032;-84
2022/09/08 13:20:42;;;;;;;9.35;5.88;;;;;;;;;;5050956;28;20059;-84
2022/09/08 13:23:21;;;;;;;7.25;5.28;;;;;;;;;;5034865;28;20029;-84
2022/09/08 13:25:47;;;;;;;7.40;5.35;;;;;;;;;;5036972;28;20033;-83
2022/09/08 13:28:19;;;;;;;7.03;6.05;;;;;;;;;;5047070;28;20455;-84
2022/09/08 13:30:57;;;;;;;7.07;5.40;;;;;;;;;;5055561;28;20029;-84
2022/09/08 13:33:47;;;;;;;8.70;5.47;;;;;;;;;;5054490;28;20024;-85
2022/09/08 13:36:17;;;;;;;7.72;5.65;;;;;;;;;;5052276;28;20068;-83
2022/09/08 13:38:48;;;;;;;7.75;5.22;;;;;;;;;;5055804;28;20053;-83
2022/09/08 13:41:38;;;;;;;7.78;5.05;;;;;;;;;;5058003;28;20048;-84
2022/09/08 13:44:22;;;;;;;7.18;5.03;;;;;;;;;;5056242;28;20115;-84
2022/09/08 13:47:07;;;;;;;7.85;4.85;;;;;;;;;;5056476;28;20052;-84
2022/09/08 13:49:39;;;;;;;7.00;4.63;;;;;;;;;;5061756;28;20507;-85
2022/09/08 13:52:23;;;;;;;7.37;5.00;;;;;;;;;;5062325;28;20083;-85
2022/09/08 13:55:00;;;;;;;6.50;4.40;;;;;;;;;;5061292;28;20267;-86
2022/09/08 13:57:45;;;;;;;6.75;4.10;;;;;;;;;;5058911;28;20021;-83
2022/09/08 14:00:13;;;;;;;6.15;3.78;;;;;;;;;;5061032;28;20025;-85
2022/09/08 14:02:47;;;;;;;5.30;3.80;;;;;;;;;;5059836;28;20108;-84
2022/09/08 14:05:17;;;;;;;6.45;3.80;;;;;;;;;;5059277;28;20040;-84
2022/09/08 14:07:53;;;;;;;5.30;3.35;;;;;;;;;;5055811;28;20036;-85
2022/09/08 14:10:26;;;;;;;6.43;3.47;;;;;;;;;;5055474;28;20017;-84
2022/09/08 14:12:53;;;;;;;7.25;3.33;;;;;;;;;;5056977;28;20021;-86
2022/09/08 14:15:28;;;;;;;5.72;3.45;;;;;;;;;;5060835;28;20017;-85
2022/09/08 14:17:54;;;;;;;5.68;3.38;;;;;;;;;;5040058;28;20045;-85
2022/09/08 14:20:26;;;;;;;5.72;3.75;;;;;;;;;;5043748;28;20032;-85
2022/09/08 14:23:09;;;;;;;7.70;3.88;;;;;;;;;;5050278;28;20057;-84
2022/09/08 14:25:36;;;;;;;6.65;3.97;;;;;;;;;;5056549;28;20527;-85
2022/09/08 14:28:03;;;;;;;5.97;3.30;;;;;;;;;;5057300;28;20072;-83
2022/09/08 14:30:52;;;;;;;6.85;3.72;;;;;;;;;;5058311;28;20105;-85
2022/09/08 14:33:28;;;;;;;6.65;3.13;;;;;;;;;;5073441;28;20055;-86
2022/09/08 14:35:59;;;;;;;4.88;3.00;;;;;;;;;;5061736;28;20024;-86
2022/09/08 14:38:29;;;;;;;5.90;2.90;;;;;;;;;;5061050;28;20055;-86
2022/09/08 14:40:55;;;;;;;5.60;2.75;;;;;;;;;;5058200;28;20036;-84
2022/09/08 14:43:44;;;;;;;4.72;2.33;;;;;;;;;;5059250;28;20029;-83
2022/09/08 14:46:29;;;;;;;5.97;2.90;;;;;;;;;;5056795;28;20034;-86
2022/09/08 14:49:03;;;;;;;5.07;3.00;;;;;;;;;;5041076;28;20037;-86
2022/09/08 14:51:38;;;;;;;5.97;3.10;;;;;;;;;;5052979;28;20086;-86
2022/09/08 14:54:08;;;;;;;5.65;3.13;;;;;;;;;;5056993;28;20327;-87
2022/09/08 14:56:39;;;;;;;6.03;3.80;;;;;;;;;;5051614;28;20071;-86
2022/09/08 14:59:26;;;;;;;3.80;2.10;;;;;;;;;;5036926;28;20033;-86
2022/09/08 15:01:56;;;;;;;4.53;2.50;;;;;;;;;;5051003;28;20112;-86